createdAt,value
2018-11-06T00:02:47.936Z,19.43
2018-11-06T00:05:51.392Z,16.83
2018-11-06T00:08:54.940Z,17.87
2018-11-06T00:11:58.502Z,16.57
2018-11-06T00:15:02.218Z,18.73
2018-11-06T00:18:06.054Z,18.50
2018-11-06T00:21:09.675Z,19.40
2018-11-06T00:24:13.290Z,19.33
2018-11-06T00:27:16.993Z,19.17
2018-11-06T00:30:20.642Z,19.57
2018-11-06T00:33:24.177Z,19.00
2018-11-06T00:36:27.758Z,17.67
2018-11-06T00:39:31.447Z,18.23
2018-11-06T00:42:36.209Z,18.77
2018-11-06T00:45:39.955Z,20.03
2018-11-06T00:48:43.463Z,19.93
2018-11-06T00:51:46.911Z,19.67
2018-11-06T00:54:50.774Z,20.67
2018-11-06T00:57:54.277Z,18.87
2018-11-06T01:00:58.000Z,19.57
2018-11-06T01:04:08.503Z,20.50
2018-11-06T01:07:12.276Z,20.37
2018-11-06T01:10:15.990Z,18.87
2018-11-06T01:13:19.541Z,19.03
2018-11-06T01:16:23.235Z,16.83
2018-11-06T01:19:26.741Z,15.70
2018-11-06T01:22:30.859Z,15.70
2018-11-06T01:25:34.410Z,16.30
2018-11-06T01:28:38.003Z,15.80
2018-11-06T01:31:41.518Z,17.73
2018-11-06T01:34:45.065Z,17.20
2018-11-06T01:37:48.603Z,18.00
2018-11-06T01:40:52.121Z,15.33
2018-11-06T01:43:55.531Z,17.17
2018-11-06T01:46:59.017Z,15.60
2018-11-06T01:50:02.531Z,16.30
2018-11-06T01:53:06.191Z,15.40
2018-11-06T01:56:09.732Z,14.87
2018-11-06T01:59:13.252Z,14.33
2018-11-06T02:02:16.821Z,15.10
2018-11-06T02:05:20.331Z,13.93
2018-11-06T02:08:23.850Z,13.83
2018-11-06T02:11:27.503Z,13.07
2018-11-06T02:14:32.104Z,13.57
2018-11-06T02:17:35.759Z,13.77
2018-11-06T02:20:39.342Z,14.00
2018-11-06T02:23:42.842Z,14.87
2018-11-06T02:26:46.377Z,15.47
2018-11-06T02:29:49.819Z,14.53
2018-11-06T02:32:53.496Z,14.63
2018-11-06T02:35:57.108Z,14.33
2018-11-06T02:39:00.620Z,13.23
2018-11-06T02:42:04.404Z,14.37
2018-11-06T02:45:08.514Z,15.53
2018-11-06T02:48:12.063Z,14.27
2018-11-06T02:51:15.675Z,15.93
2018-11-06T02:54:19.229Z,15.77
2018-11-06T02:57:22.695Z,18.30
2018-11-06T03:00:26.324Z,15.90
2018-11-06T03:03:34.083Z,15.30
2018-11-06T03:06:37.576Z,14.83
2018-11-06T03:09:41.089Z,14.67
2018-11-06T03:12:45.318Z,15.17
2018-11-06T03:15:48.925Z,14.37
2018-11-06T03:18:52.627Z,14.70
2018-11-06T03:21:56.474Z,14.67
2018-11-06T03:25:00.149Z,14.27
2018-11-06T03:28:03.788Z,14.87
2018-11-06T03:31:07.704Z,15.17
2018-11-06T03:34:11.342Z,15.30
2018-11-06T03:37:14.933Z,16.43
2018-11-06T03:40:18.458Z,16.50
2018-11-06T03:43:21.996Z,18.60
2018-11-06T03:46:25.544Z,18.17
2018-11-06T03:49:29.251Z,16.23
2018-11-06T03:52:32.735Z,15.77
2018-11-06T03:55:36.268Z,16.73
2018-11-06T03:58:40.022Z,17.10
2018-11-06T04:01:43.663Z,16.47
2018-11-06T04:04:47.230Z,15.30
2018-11-06T04:07:51.110Z,15.93
2018-11-06T04:10:54.699Z,16.63
2018-11-06T04:13:58.170Z,17.63
2018-11-06T04:17:01.684Z,18.10
2018-11-06T04:20:05.915Z,17.50
2018-11-06T04:23:09.408Z,18.53
2018-11-06T04:26:12.951Z,18.27
2018-11-06T04:29:16.421Z,18.43
2018-11-06T04:32:19.979Z,18.73
2018-11-06T04:35:23.501Z,17.97
2018-11-06T04:38:27.040Z,18.30
2018-11-06T04:41:30.541Z,20.20
2018-11-06T04:44:34.030Z,19.00
2018-11-06T04:47:37.678Z,19.00
2018-11-06T04:50:41.253Z,18.57
2018-11-06T04:53:44.665Z,17.67
2018-11-06T04:56:48.158Z,16.73
2018-11-06T04:59:51.657Z,16.73
2018-11-06T05:02:55.074Z,15.70
2018-11-06T05:05:58.547Z,14.87
2018-11-06T05:09:02.032Z,15.83
2018-11-06T05:12:05.934Z,17.53
2018-11-06T05:15:11.896Z,15.13
2018-11-06T05:18:15.422Z,15.27
2018-11-06T05:21:18.905Z,16.43
2018-11-06T05:24:22.433Z,12.83
2018-11-06T05:27:26.011Z,10.67
2018-11-06T05:30:29.560Z,10.63
2018-11-06T05:33:33.028Z,11.67
2018-11-06T05:36:36.531Z,11.07
2018-11-06T05:39:51.369Z,11.87
2018-11-06T05:42:54.805Z,10.70
2018-11-06T05:45:58.437Z,11.67
2018-11-06T05:49:01.833Z,11.30
2018-11-06T05:52:05.716Z,12.60
2018-11-06T05:55:09.352Z,13.83
2018-11-06T05:58:12.887Z,12.73
2018-11-06T06:01:16.453Z,12.33
2018-11-06T06:04:19.997Z,12.93
2018-11-06T06:07:23.521Z,12.27
2018-11-06T06:10:27.553Z,12.73
2018-11-06T06:13:33.265Z,12.17
2018-11-06T06:16:36.871Z,12.50
2018-11-06T06:19:40.419Z,10.63
2018-11-06T06:22:44.055Z,10.73
2018-11-06T06:25:48.683Z,11.67
2018-11-06T06:28:53.227Z,12.57
2018-11-06T06:31:56.877Z,11.57
2018-11-06T06:35:00.382Z,12.23
2018-11-06T06:38:03.902Z,12.70
2018-11-06T06:41:07.554Z,12.63
2018-11-06T06:44:11.123Z,13.63
2018-11-06T06:47:14.697Z,14.00
2018-11-06T06:50:19.388Z,14.97
2018-11-06T06:53:22.893Z,16.97
2018-11-06T06:56:26.461Z,16.97
2018-11-06T06:59:30.018Z,19.50
2018-11-06T07:02:33.619Z,17.87
2018-11-06T07:05:37.090Z,19.53
2018-11-06T07:08:40.710Z,20.83
2018-11-06T07:11:44.521Z,18.50
2018-11-06T07:14:48.083Z,17.73
2018-11-06T07:17:52.344Z,16.90
2018-11-06T07:20:55.847Z,16.97
2018-11-06T07:23:59.288Z,18.50
2018-11-06T07:27:02.785Z,18.60
2018-11-06T07:30:08.825Z,16.67
2018-11-06T07:33:12.301Z,17.20
2018-11-06T07:36:15.852Z,14.60
2018-11-06T07:39:19.545Z,15.00
2018-11-06T07:42:23.010Z,15.77
2018-11-06T07:45:26.542Z,15.93
2018-11-06T07:48:30.040Z,15.17
2018-11-06T07:51:33.546Z,15.90
2018-11-06T07:54:37.028Z,15.93
2018-11-06T07:57:40.755Z,16.23
2018-11-06T08:00:44.238Z,16.43
2018-11-06T08:03:47.748Z,15.90
2018-11-06T08:06:51.216Z,16.43
2018-11-06T08:09:54.776Z,17.73
2018-11-06T08:12:58.364Z,18.50
2018-11-06T08:16:01.821Z,17.30
2018-11-06T08:19:05.435Z,18.60
2018-11-06T08:22:09.098Z,18.57
2018-11-06T08:25:13.728Z,18.77
2018-11-06T08:28:17.201Z,18.87
2018-11-06T08:31:21.302Z,19.30
2018-11-06T08:34:24.260Z,18.33
2018-11-06T08:37:27.841Z,20.03
2018-11-06T08:40:31.368Z,18.30
2018-11-06T08:43:34.935Z,18.37
2018-11-06T08:46:38.547Z,17.67
2018-11-06T08:49:42.116Z,18.40
2018-11-06T08:52:45.748Z,17.03
2018-11-06T08:55:49.211Z,18.13
2018-11-06T08:58:52.662Z,19.20
2018-11-06T09:01:56.167Z,18.70
2018-11-06T09:04:59.618Z,20.43
2018-11-06T09:08:03.202Z,24.50
2018-11-06T09:11:06.689Z,23.33
2018-11-06T09:14:10.162Z,25.47
2018-11-06T09:17:13.670Z,23.77
2018-11-06T09:20:17.644Z,22.07
2018-11-06T09:23:21.088Z,18.87
2018-11-06T09:26:24.638Z,17.97
2018-11-06T09:29:28.107Z,16.57
2018-11-06T09:32:31.580Z,18.03
2018-11-06T09:35:35.021Z,19.50
2018-11-06T09:38:38.518Z,19.00
2018-11-06T09:41:42.372Z,21.00
2018-11-06T09:44:45.861Z,21.10
2018-11-06T09:47:49.334Z,21.13
2018-11-06T09:50:52.745Z,21.63
2018-11-06T09:53:56.178Z,19.83
2018-11-06T09:56:59.616Z,22.67
2018-11-06T10:00:03.170Z,22.93
2018-11-06T10:03:06.705Z,20.97
2018-11-06T10:06:10.195Z,20.53
2018-11-06T10:09:13.741Z,21.50
2018-11-06T10:12:17.234Z,21.83
2018-11-06T10:15:21.407Z,22.93
2018-11-06T10:18:24.849Z,24.27
2018-11-06T10:21:28.409Z,23.20
2018-11-06T10:24:31.939Z,23.00
2018-11-06T10:27:35.563Z,23.07
2018-11-06T10:30:39.050Z,24.53
2018-11-06T10:33:43.475Z,24.90
2018-11-06T10:36:47.013Z,26.03
2018-11-06T10:39:50.445Z,27.00
2018-11-06T10:42:53.852Z,28.47
2018-11-06T10:45:57.326Z,27.27
2018-11-06T10:49:00.896Z,26.23
2018-11-06T10:52:04.418Z,20.37
2018-11-06T10:55:08.491Z,20.73
2018-11-06T10:58:12.062Z,18.77
2018-11-06T11:01:20.884Z,21.20
2018-11-06T11:04:25.571Z,21.63
2018-11-06T11:07:29.182Z,22.20
2018-11-06T11:10:32.758Z,24.87
2018-11-06T11:13:36.293Z,27.40
2018-11-06T11:16:39.866Z,27.40
2018-11-06T11:19:43.379Z,30.30
2018-11-06T11:22:46.851Z,30.50
2018-11-06T11:25:50.526Z,31.87
2018-11-06T11:28:54.026Z,31.80
2018-11-06T11:31:58.699Z,33.93
2018-11-06T11:35:02.224Z,36.40
2018-11-06T11:38:05.886Z,35.80
2018-11-06T11:41:09.534Z,35.97
2018-11-06T11:44:14.077Z,36.77
2018-11-06T11:47:17.713Z,36.13
2018-11-06T11:50:21.443Z,33.27
2018-11-06T11:53:24.986Z,36.57
2018-11-06T11:56:28.548Z,37.73
2018-11-06T11:59:32.093Z,38.37
2018-11-06T12:02:35.699Z,38.07
2018-11-06T12:05:39.259Z,37.60
2018-11-06T12:08:42.871Z,34.63
2018-11-06T12:11:46.468Z,35.50
2018-11-06T12:14:50.017Z,36.63
2018-11-06T12:17:53.643Z,35.80
2018-11-06T12:20:57.262Z,38.10
2018-11-06T12:24:00.948Z,38.07
2018-11-06T12:27:04.435Z,36.70
2018-11-06T12:30:12.349Z,34.20
2018-11-06T12:33:15.907Z,34.20
2018-11-06T12:36:19.571Z,32.23
2018-11-06T12:39:23.180Z,30.30
2018-11-06T12:42:26.774Z,28.83
2018-11-06T12:45:30.675Z,29.27
2018-11-06T12:48:34.146Z,27.70
2018-11-06T12:51:37.745Z,26.73
2018-11-06T12:54:43.259Z,26.17
2018-11-06T12:57:46.849Z,26.30
2018-11-06T13:00:50.401Z,26.77
2018-11-06T13:03:53.981Z,26.67
2018-11-06T13:06:57.613Z,27.97
2018-11-06T13:10:01.287Z,27.07
2018-11-06T13:13:05.090Z,27.77
2018-11-06T13:16:08.893Z,29.27
2018-11-06T13:19:12.561Z,31.60
2018-11-06T13:22:16.067Z,30.93
2018-11-06T13:25:19.605Z,32.33
2018-11-06T13:28:23.164Z,29.53
2018-11-06T13:31:26.713Z,30.63
2018-11-06T13:34:30.353Z,30.53
2018-11-06T13:37:34.097Z,28.47
2018-11-06T13:40:37.675Z,30.93
2018-11-06T13:43:41.569Z,31.07
2018-11-06T13:46:45.177Z,29.80
2018-11-06T13:49:49.110Z,29.63
2018-11-06T13:52:52.704Z,29.57
2018-11-06T13:55:56.712Z,28.93
2018-11-06T13:59:00.339Z,30.00
2018-11-06T14:02:04.087Z,29.60
2018-11-06T14:05:07.636Z,31.47
2018-11-06T14:08:11.257Z,32.03
2018-11-06T14:11:14.851Z,32.43
2018-11-06T14:14:18.460Z,33.67
2018-11-06T14:17:22.030Z,35.50
2018-11-06T14:20:25.675Z,38.67
2018-11-06T14:23:29.218Z,40.80
2018-11-06T14:26:32.744Z,39.87
2018-11-06T14:29:36.349Z,40.27
2018-11-06T14:32:40.271Z,40.10
2018-11-06T14:35:43.896Z,40.93
2018-11-06T14:38:47.475Z,38.37
2018-11-06T14:41:51.095Z,41.40
2018-11-06T14:44:54.688Z,42.83
2018-11-06T14:47:58.372Z,48.80
2018-11-06T14:51:01.814Z,50.53
2018-11-06T14:54:05.581Z,53.43
2018-11-06T14:57:09.136Z,51.97
2018-11-06T15:00:16.075Z,51.77
2018-11-06T15:03:19.737Z,54.53
2018-11-06T15:06:23.302Z,56.27
2018-11-06T15:09:26.809Z,53.47
2018-11-06T15:12:30.501Z,53.23
2018-11-06T15:15:34.048Z,49.37
2018-11-06T15:18:37.612Z,51.07
2018-11-06T15:21:41.148Z,52.83
2018-11-06T15:24:45.772Z,58.23
2018-11-06T15:27:49.353Z,56.83
2018-11-06T15:30:53.957Z,52.27
2018-11-06T15:33:57.498Z,50.00
2018-11-06T15:37:02.014Z,48.57
2018-11-06T15:40:07.080Z,47.60
2018-11-06T15:43:10.620Z,48.30
2018-11-06T15:46:14.092Z,45.00
2018-11-06T15:49:18.032Z,42.17
2018-11-06T15:52:22.038Z,39.33
2018-11-06T15:55:25.529Z,32.10
2018-11-06T15:58:29.194Z,30.10
2018-11-06T16:01:32.817Z,31.30
2018-11-06T16:04:36.573Z,30.03
2018-11-06T16:07:40.253Z,29.00
2018-11-06T16:10:43.799Z,29.43
2018-11-06T16:13:47.236Z,27.73
2018-11-06T16:16:50.703Z,29.63
2018-11-06T16:19:54.331Z,27.90
2018-11-06T16:22:57.883Z,27.83
2018-11-06T16:26:01.411Z,30.70
2018-11-06T16:29:05.208Z,28.13
2018-11-06T16:32:08.813Z,28.50
2018-11-06T16:35:13.965Z,29.00
2018-11-06T16:38:17.664Z,29.07
2018-11-06T16:41:21.811Z,29.83
2018-11-06T16:44:25.592Z,29.50
2018-11-06T16:47:29.393Z,29.17
2018-11-06T16:50:33.094Z,28.80
2018-11-06T16:53:36.706Z,29.57
2018-11-06T16:56:40.209Z,29.73
2018-11-06T16:59:43.758Z,29.83
2018-11-06T17:02:47.102Z,30.30
2018-11-06T17:05:50.623Z,30.80
2018-11-06T17:08:54.261Z,31.57
2018-11-06T17:11:57.881Z,33.23
2018-11-06T17:15:01.833Z,31.33
2018-11-06T17:18:05.851Z,32.90
2018-11-06T17:21:09.328Z,32.57
2018-11-06T17:24:12.961Z,32.27
2018-11-06T17:27:16.445Z,33.50
2018-11-06T17:30:20.231Z,32.67
2018-11-06T17:33:23.862Z,31.27
2018-11-06T17:36:27.411Z,31.63
2018-11-06T17:39:31.010Z,31.47
2018-11-06T17:42:35.613Z,31.77
2018-11-06T17:45:40.853Z,31.03
2018-11-06T17:48:44.367Z,30.77
2018-11-06T17:51:47.916Z,30.20
2018-11-06T17:54:51.370Z,27.97
2018-11-06T17:57:54.893Z,27.67
2018-11-06T18:00:58.302Z,28.90
2018-11-06T18:04:01.940Z,27.57
2018-11-06T18:07:05.524Z,28.23
2018-11-06T18:10:10.307Z,28.33
2018-11-06T18:13:14.128Z,27.60
2018-11-06T18:16:17.667Z,26.93
2018-11-06T18:19:21.077Z,28.40
2018-11-06T18:22:24.623Z,27.13
2018-11-06T18:25:28.345Z,26.73
2018-11-06T18:28:31.824Z,26.30
2018-11-06T18:31:35.591Z,25.70
2018-11-06T18:34:39.345Z,27.37
2018-11-06T18:37:43.172Z,27.17
2018-11-06T18:40:46.788Z,28.00
2018-11-06T18:43:50.328Z,25.83
2018-11-06T18:46:53.906Z,27.23
2018-11-06T18:49:57.636Z,26.33
2018-11-06T18:53:01.147Z,27.07
2018-11-06T18:56:05.080Z,25.13
2018-11-06T18:59:08.739Z,26.10
2018-11-06T19:02:12.293Z,26.87
2018-11-06T19:05:16.504Z,26.77
2018-11-06T19:08:20.163Z,26.93
2018-11-06T19:11:23.689Z,26.53
2018-11-06T19:14:27.259Z,24.20
2018-11-06T19:17:30.829Z,23.20
2018-11-06T19:20:34.456Z,26.17
2018-11-06T19:23:38.036Z,25.13
2018-11-06T19:26:41.539Z,24.67
2018-11-06T19:29:45.055Z,26.23
2018-11-06T19:32:48.966Z,23.97
2018-11-06T19:35:52.515Z,24.07
2018-11-06T19:38:56.074Z,22.93
2018-11-06T19:41:59.561Z,23.33
2018-11-06T19:45:03.076Z,22.07
2018-11-06T19:48:06.673Z,25.20
2018-11-06T19:51:10.192Z,24.63
2018-11-06T19:54:13.835Z,23.50
2018-11-06T19:57:17.243Z,22.97
2018-11-06T20:00:22.501Z,25.63
2018-11-06T20:03:26.025Z,24.60
2018-11-06T20:06:29.551Z,24.17
2018-11-06T20:09:33.055Z,21.43
2018-11-06T20:12:36.760Z,22.63
2018-11-06T20:15:40.631Z,22.13
2018-11-06T20:18:44.832Z,22.13
2018-11-06T20:21:49.634Z,22.43
2018-11-06T20:24:53.053Z,21.87
2018-11-06T20:27:56.597Z,22.30
2018-11-06T20:31:00.099Z,22.07
2018-11-06T20:34:03.749Z,24.47
2018-11-06T20:37:07.730Z,26.10
2018-11-06T20:40:14.346Z,23.23
2018-11-06T20:43:18.080Z,24.17
2018-11-06T20:46:21.507Z,25.10
2018-11-06T20:49:25.065Z,23.30
2018-11-06T20:52:28.596Z,23.93
2018-11-06T20:55:32.107Z,24.70
2018-11-06T20:58:35.691Z,23.63
2018-11-06T21:01:39.212Z,21.83
2018-11-06T21:04:42.758Z,21.63
2018-11-06T21:07:46.939Z,22.63
2018-11-06T21:10:50.401Z,24.27
2018-11-06T21:13:53.928Z,20.67
2018-11-06T21:16:57.485Z,21.87
2018-11-06T21:20:01.150Z,20.47
2018-11-06T21:23:04.715Z,20.63
2018-11-06T21:26:08.307Z,21.77
2018-11-06T21:29:11.824Z,23.60
2018-11-06T21:32:15.395Z,22.27
2018-11-06T21:35:18.918Z,22.73
2018-11-06T21:38:22.374Z,22.43
2018-11-06T21:41:25.894Z,22.50
2018-11-06T21:44:29.416Z,21.43
2018-11-06T21:47:32.894Z,21.40
2018-11-06T21:50:36.449Z,22.33
2018-11-06T21:53:39.951Z,20.03
2018-11-06T21:56:43.591Z,21.77
2018-11-06T21:59:47.120Z,20.93
2018-11-06T22:02:51.641Z,20.77
2018-11-06T22:05:55.195Z,21.70
2018-11-06T22:08:58.662Z,20.83
2018-11-06T22:12:02.177Z,21.47
2018-11-06T22:15:07.095Z,20.33
2018-11-06T22:18:10.541Z,19.47
2018-11-06T22:21:13.979Z,21.83
2018-11-06T22:24:17.542Z,20.67
2018-11-06T22:27:20.987Z,22.37
2018-11-06T22:30:24.462Z,19.87
2018-11-06T22:33:27.919Z,20.60
2018-11-06T22:36:31.378Z,19.80
2018-11-06T22:39:34.904Z,20.60
2018-11-06T22:42:38.691Z,21.03
2018-11-06T22:45:42.222Z,21.27
2018-11-06T22:48:45.701Z,21.17
2018-11-06T22:51:49.210Z,20.13
2018-11-06T22:54:53.649Z,19.77
2018-11-06T22:57:57.222Z,21.17
2018-11-06T23:01:06.091Z,20.27
2018-11-06T23:04:09.566Z,20.57
2018-11-06T23:07:18.596Z,20.27
2018-11-06T23:10:22.052Z,20.53
2018-11-06T23:13:25.836Z,19.40
2018-11-06T23:16:29.402Z,20.63
2018-11-06T23:19:32.955Z,20.07
2018-11-06T23:22:36.421Z,20.27
2018-11-06T23:25:40.152Z,19.37
2018-11-06T23:28:43.702Z,20.47
2018-11-06T23:31:47.424Z,19.70
2018-11-06T23:34:50.861Z,20.23
2018-11-06T23:37:54.457Z,20.83
2018-11-06T23:40:58.055Z,19.93
2018-11-06T23:44:01.730Z,19.17
2018-11-06T23:47:05.479Z,20.40
2018-11-06T23:50:10.130Z,20.40
2018-11-06T23:53:13.684Z,21.20
2018-11-06T23:56:17.344Z,20.13
2018-11-06T23:59:21.970Z,19.07
